.
WxDataArchive / Data Records for 2012-11-11
2012-11-10 November 2012 2012-11-12

Data Records for Sunday, 11 November 2012

Time	Temp	Chill	HIndex	Humid	Dewpt	 Wind 	HiWind	WindDir	Rain 	Barom 
-----	----	-----	------	-----	-----	------	------	-------	-----	----- 
00:00	58.4	58.4	58.4	58	43.7	0	3	270	0.00	30.049 
00:05	58.4	58.4	58.4	58	43.7	1	5	248	0.00	30.049 
00:10	58.3	58.3	58.3	58	43.6	0	3	225	0.00	30.049 
00:15	58.1	58.1	58.1	58	43.4	0	3	248	0.00	30.052 
00:20	58.1	58.1	58.1	58	43.4	0	3	248	0.00	30.052 
00:25	58.1	58.1	58.1	58	43.4	1	5	248	0.00	30.052 
00:30	58.0	58.0	58.0	58	43.3	0	2	248	0.00	30.052 
00:35	58.0	58.0	58.0	58	43.3	0	3	248	0.00	30.052 
00:40	57.8	57.8	57.8	59	43.6	0	3	248	0.00	30.052 
00:45	57.5	57.5	57.5	59	43.3	0	2	338	0.00	30.053 
00:50	57.3	57.3	57.3	60	43.5	0	2	338	0.00	30.053 
00:55	57.2	57.2	57.2	60	43.4	0	2	338	0.00	30.053 
01:00	57.0	57.0	57.0	60	43.3	0	2	338	0.00	30.054 
01:05	57.0	57.0	57.0	60	43.3	0	2	0	0.00	30.054 
01:10	57.0	57.0	57.0	60	43.3	0	2	270	0.00	30.054 
01:15	57.0	57.0	57.0	60	43.3	0	2	270	0.00	30.055 
01:20	57.0	57.0	57.0	60	43.3	0	2	248	0.00	30.055 
01:25	56.9	56.9	56.9	60	43.2	0	2	248	0.00	30.055 
01:30	56.7	56.7	56.7	61	43.4	0	2	248	0.00	30.059 
01:35	56.7	56.7	56.7	61	43.4	0	2	248	0.00	30.059 
01:40	56.6	56.6	56.6	61	43.3	0	1	248	0.00	30.059 
01:45	56.6	56.6	56.6	61	43.3	0	1	248	0.00	30.060 
01:50	56.6	56.6	56.6	61	43.3	0	1	248	0.00	30.060 
01:55	56.5	56.5	56.5	61	43.2	0	2	248	0.00	30.060 
02:00	56.5	56.5	56.5	61	43.2	0	1	248	0.00	30.060 
02:05	56.3	56.3	56.3	62	43.4	0	1	248	0.00	30.060 
02:10	56.2	56.2	56.2	62	43.4	0	1	248	0.00	30.060 
02:15	56.0	56.0	56.0	62	43.2	0	1	248	0.00	30.052 
02:20	55.7	55.7	55.7	62	42.9	0	1	248	0.00	30.052 
02:25	55.6	55.6	55.6	63	43.2	0	1	248	0.00	30.052 
02:30	55.6	55.6	55.6	63	43.2	0	1	248	0.00	30.062 
02:35	55.3	55.3	55.3	63	42.9	0	1	248	0.00	30.062 
02:40	55.1	55.1	55.1	63	42.7	0	0	---	0.00	30.062 
02:45	54.8	54.8	54.8	64	42.9	0	1	248	0.00	30.062 
02:50	54.7	54.7	54.7	64	42.8	0	0	---	0.00	30.062 
02:55	54.5	54.5	54.5	64	42.6	0	1	248	0.00	30.062 
03:00	54.4	54.4	54.4	64	42.5	0	0	---	0.00	30.066 
03:05	54.1	54.1	54.1	65	42.6	0	0	---	0.00	30.066 
03:10	53.9	53.9	53.9	65	42.4	0	0	---	0.00	30.066 
03:15	53.9	53.9	53.9	65	42.4	0	1	248	0.00	30.067 
03:20	53.9	53.9	53.9	65	42.4	0	1	248	0.00	30.067 
03:25	53.9	53.9	53.9	65	42.4	0	1	248	0.00	30.067 
03:30	53.8	53.8	53.8	65	42.3	0	0	---	0.00	30.074 
03:35	53.8	53.8	53.8	65	42.3	0	3	248	0.00	30.074 
03:40	53.9	53.9	53.9	64	42.0	0	1	248	0.00	30.074 
03:45	54.1	54.1	54.1	64	42.2	0	3	248	0.00	30.081 
03:50	54.2	54.2	54.2	64	42.3	0	1	248	0.00	30.081 
03:55	54.2	54.2	54.2	63	41.9	0	1	248	0.00	30.081 
04:00	54.2	54.2	54.2	63	41.9	0	2	248	0.00	30.082 
04:05	54.4	54.4	54.4	63	42.1	0	1	248	0.00	30.082 
04:10	54.2	54.2	54.2	63	41.9	0	1	0	0.00	30.082 
04:15	54.2	54.2	54.2	63	41.9	0	2	0	0.00	30.084 
04:20	54.2	54.2	54.2	63	41.9	0	1	0	0.00	30.084 
04:25	54.1	54.1	54.1	63	41.8	0	1	0	0.00	30.084 
04:30	53.9	53.9	53.9	63	41.6	0	1	0	0.00	30.084 
04:35	53.8	53.8	53.8	63	41.5	0	1	0	0.00	30.084 
04:40	53.6	53.6	53.6	64	41.7	0	1	0	0.00	30.084 
04:45	53.5	53.5	53.5	64	41.6	0	1	0	0.00	30.089 
04:50	53.3	53.3	53.3	64	41.4	0	3	0	0.00	30.089 
04:55	53.2	53.2	53.2	64	41.3	0	1	0	0.00	30.089 
05:00	53.1	53.1	53.1	64	41.2	0	2	0	0.00	30.092 
05:05	53.1	53.1	53.1	64	41.2	0	1	0	0.00	30.092 
05:10	52.9	52.9	52.9	64	41.1	0	1	0	0.00	30.092 
05:15	52.9	52.9	52.9	64	41.1	0	1	0	0.00	30.099 
05:20	52.8	52.8	52.8	65	41.4	0	1	0	0.00	30.099 
05:25	52.6	52.6	52.6	65	41.2	0	1	0	0.00	30.099 
05:30	52.6	52.6	52.6	65	41.2	1	4	90	0.00	30.102 
05:35	52.6	52.6	52.6	64	40.8	0	1	90	0.00	30.102 
05:40	52.5	52.5	52.5	65	41.1	0	1	90	0.00	30.102 
05:45	52.5	52.5	52.5	65	41.1	0	1	90	0.00	30.110 
05:50	52.2	52.2	52.2	65	40.8	0	1	90	0.00	30.110 
05:55	52.0	52.0	52.0	66	41.0	0	1	90	0.00	30.110 
06:00	51.9	51.9	51.9	66	40.9	0	1	90	0.00	30.109 
06:05	51.7	51.7	51.7	66	40.7	0	1	90	0.00	30.109 
06:10	51.6	51.6	51.6	67	41.0	0	0	---	0.00	30.109 
06:15	51.4	51.4	51.4	67	40.8	0	2	90	0.00	30.107 
06:20	51.4	51.4	51.4	67	40.8	0	1	90	0.00	30.107 
06:25	51.4	51.4	51.4	67	40.8	0	1	90	0.00	30.107 
06:30	51.4	51.4	51.4	67	40.8	0	1	90	0.00	30.112 
06:35	51.4	51.4	51.4	67	40.8	0	2	90	0.00	30.112 
06:40	51.4	51.4	51.4	67	40.8	0	2	90	0.00	30.112 
06:45	51.4	51.4	51.4	67	40.8	0	2	90	0.00	30.112 
06:50	51.4	51.4	51.4	67	40.8	0	1	90	0.00	30.112 
06:55	51.4	51.4	51.4	67	40.8	0	2	90	0.00	30.112 
07:00	51.6	51.6	51.6	67	41.0	1	4	112	0.00	30.111 
07:05	51.7	51.7	51.7	66	40.7	1	3	112	0.00	30.111 
07:10	51.9	51.9	51.9	66	40.9	1	3	112	0.00	30.111 
07:15	51.7	51.7	51.7	66	40.7	1	4	112	0.00	30.115 
07:20	51.7	51.7	51.7	67	41.1	1	2	112	0.00	30.115 
07:25	51.6	51.6	51.6	67	41.0	0	2	112	0.00	30.115 
07:30	51.6	51.6	51.6	67	41.0	1	3	112	0.00	30.115 
07:35	51.6	51.6	51.6	67	41.0	1	3	112	0.00	30.115 
07:40	51.9	51.9	51.9	67	41.3	1	3	112	0.00	30.115 
07:45	52.0	52.0	52.0	66	41.0	1	4	112	0.00	30.112 
07:50	52.2	52.2	52.2	66	41.2	1	5	90	0.00	30.112 
07:55	52.6	52.6	52.6	65	41.2	2	6	90	0.00	30.112 
08:00	53.1	53.1	53.1	64	41.2	2	5	90	0.00	30.107 
08:05	53.5	53.5	53.5	63	41.2	2	5	90	0.00	30.107 
08:10	53.9	53.9	53.9	62	41.2	1	6	112	0.00	30.107 
08:15	54.1	54.1	54.1	62	41.4	1	6	45	0.00	30.110 
08:20	54.4	54.4	54.4	62	41.7	2	9	112	0.00	30.110 
08:25	54.8	54.8	54.8	61	41.6	1	5	90	0.00	30.110 
08:30	55.1	55.1	55.1	61	41.9	2	6	68	0.00	30.113 
08:35	55.4	55.4	55.4	60	41.7	2	5	68	0.00	30.113 
08:40	55.4	55.4	55.4	60	41.7	1	5	90	0.00	30.113 
08:45	55.4	55.4	55.4	61	42.2	1	4	90	0.00	30.117 
08:50	55.3	55.3	55.3	60	41.7	2	7	22	0.00	30.117 
08:55	55.3	55.3	55.3	60	41.7	1	4	90	0.00	30.117 
09:00	55.3	55.3	55.3	61	42.1	1	4	248	0.00	30.119 
09:05	55.3	55.3	55.3	61	42.1	1	7	68	0.00	30.119 
09:10	55.4	55.4	55.4	61	42.2	1	4	270	0.00	30.119 
09:15	55.9	55.9	55.9	60	42.2	1	6	22	0.00	30.119 
09:20	56.3	56.3	56.3	59	42.2	1	10	135	0.00	30.119 
09:25	56.5	56.5	56.5	59	42.3	2	5	45	0.00	30.119 
09:30	56.6	56.6	56.6	59	42.4	1	4	270	0.00	30.116 
09:35	56.6	56.6	56.6	59	42.4	2	9	45	0.00	30.116 
09:40	56.9	56.9	56.9	58	42.3	3	12	248	0.00	30.116 
09:45	57.0	57.0	57.0	58	42.4	2	12	90	0.00	30.117 
09:50	57.2	57.2	57.2	58	42.6	2	5	45	0.00	30.117 
09:55	57.2	57.2	57.2	58	42.6	2	5	90	0.00	30.117 
10:00	57.2	57.2	57.2	58	42.6	2	5	292	0.00	30.115 
10:05	57.2	57.2	57.2	59	43.0	2	7	68	0.00	30.115 
10:10	57.3	57.3	57.3	59	43.1	2	5	248	0.00	30.115 
10:15	57.6	57.6	57.6	58	42.9	2	7	248	0.00	30.114 
10:20	58.1	58.1	58.1	59	43.8	1	4	90	0.00	30.114 
10:25	58.9	58.9	58.9	58	44.1	1	5	248	0.00	30.114 
10:30	59.5	59.5	59.5	57	44.3	2	9	270	0.00	30.106 
10:35	60.1	60.1	60.1	56	44.3	2	10	270	0.00	30.106 
10:40	60.5	60.5	60.5	56	44.7	2	7	248	0.00	30.106 
10:45	60.9	60.9	60.9	57	45.6	2	6	248	0.00	30.103 
10:50	61.2	61.2	61.2	56	45.4	3	13	248	0.00	30.103 
10:55	61.6	61.6	61.6	55	45.3	2	10	248	0.00	30.103 
11:00	62.1	62.1	62.1	54	45.3	4	9	248	0.00	30.098 
11:05	62.3	62.3	62.3	54	45.4	3	11	270	0.00	30.098 
11:10	62.4	62.4	62.4	54	45.5	2	11	248	0.00	30.098 
11:15	62.9	62.9	62.9	53	45.5	3	10	248	0.00	30.096 
11:20	63.4	63.4	63.4	53	46.0	2	9	225	0.00	30.096 
11:25	63.9	63.9	63.9	53	46.4	2	7	0	0.00	30.096 
11:30	64.3	64.3	64.3	53	46.8	3	10	68	0.00	30.081 
11:35	64.7	64.7	64.7	52	46.7	2	5	22	0.00	30.081 
11:40	64.8	64.8	64.8	52	46.8	3	6	68	0.00	30.081 
11:45	64.7	64.7	64.7	52	46.7	2	6	45	0.00	30.070 
11:50	64.7	64.7	64.7	51	46.1	3	10	90	0.00	30.070 
11:55	64.8	64.8	64.8	53	47.3	2	6	112	0.00	30.070 
12:00	65.2	65.2	65.2	51	46.6	3	9	90	0.00	30.060 
12:05	65.3	65.3	65.3	51	46.7	4	7	90	0.00	30.060 
12:10	65.3	65.3	65.3	51	46.7	3	10	68	0.00	30.060 
12:15	65.3	65.3	65.3	50	46.2	3	7	270	0.00	30.062 
12:20	65.0	65.0	65.0	50	45.9	3	11	68	0.00	30.062 
12:25	64.7	64.7	64.7	52	46.7	2	6	248	0.00	30.062 
12:30	65.0	65.0	65.0	50	45.9	2	10	248	0.00	30.053 
12:35	65.5	65.5	65.5	50	46.4	2	12	248	0.00	30.053 
12:40	65.6	65.6	65.6	50	46.5	2	6	248	0.00	30.053 
12:45	65.6	65.6	65.6	50	46.5	2	9	68	0.00	30.050 
12:50	65.6	65.6	65.6	50	46.5	4	10	90	0.00	30.050 
12:55	65.5	65.5	65.5	50	46.4	4	16	90	0.00	30.050 
13:00	65.6	65.6	65.6	50	46.5	3	9	90	0.00	30.044 
13:05	65.6	65.6	65.6	50	46.5	4	12	90	0.00	30.044 
13:10	65.5	65.5	65.5	50	46.4	4	13	90	0.00	30.044 
13:15	65.5	65.5	65.5	50	46.4	3	11	270	0.00	30.037 
13:20	65.6	65.6	65.6	50	46.5	3	7	315	0.00	30.037 
13:25	65.8	65.8	65.8	51	47.2	1	6	248	0.00	30.037 
13:30	66.1	66.1	66.1	50	46.9	2	5	90	0.00	30.030 
13:35	66.4	66.4	66.4	49	46.7	3	12	90	0.00	30.030 
13:40	66.8	66.8	66.8	48	46.5	3	9	270	0.00	30.030 
13:45	66.9	66.9	66.9	49	47.1	3	10	248	0.00	30.017 
13:50	67.1	67.1	67.1	49	47.3	2	10	248	0.00	30.017 
13:55	67.3	67.3	67.3	48	46.9	3	7	90	0.00	30.017 
14:00	67.4	67.4	67.4	48	47.0	2	5	68	0.00	30.010 
14:05	67.4	67.4	67.4	48	47.0	4	11	90	0.00	30.010 
14:10	67.4	67.4	67.4	48	47.0	4	12	68	0.00	30.010 
14:15	67.4	67.4	67.4	47	46.5	4	13	90	0.00	30.005 
14:20	67.6	67.6	67.6	48	47.2	4	14	90	0.00	30.005 
14:25	67.4	67.4	67.4	48	47.0	4	10	90	0.00	30.005 
14:30	67.4	67.4	67.4	48	47.0	4	12	90	0.00	30.006 
14:35	67.4	67.4	67.4	48	47.0	3	10	68	0.00	30.006 
14:40	67.3	67.3	67.3	47	46.4	5	13	90	0.00	30.006 
14:45	67.1	67.1	67.1	48	46.7	3	15	90	0.00	30.003 
14:50	66.9	66.9	66.9	49	47.1	4	7	68	0.00	30.003 
14:55	67.1	67.1	67.1	48	46.7	3	12	22	0.00	30.003 
15:00	67.3	67.3	67.3	48	46.9	4	10	90	0.00	29.999 
15:05	67.3	67.3	67.3	48	46.9	3	10	68	0.00	29.999 
15:10	67.1	67.1	67.1	49	47.3	3	7	68	0.00	29.999 
15:15	66.9	66.9	66.9	48	46.6	4	10	68	0.00	30.002 
15:20	66.9	66.9	66.9	49	47.1	4	13	90	0.00	30.002 
15:25	66.9	66.9	66.9	49	47.1	4	10	90	0.00	30.002 
15:30	66.6	66.6	66.6	49	46.8	3	9	68	0.00	30.000 
15:35	66.4	66.4	66.4	50	47.2	3	12	68	0.00	30.000 
15:40	66.3	66.3	66.3	51	47.6	2	5	90	0.00	30.000 
15:45	66.3	66.3	66.3	50	47.1	3	10	248	0.00	30.005 
15:50	66.3	66.3	66.3	50	47.1	3	7	90	0.00	30.005 
15:55	65.8	65.8	65.8	50	46.6	5	17	68	0.00	30.005 
16:00	65.5	65.5	65.5	51	46.9	4	12	68	0.00	30.005 
16:05	65.0	65.0	65.0	52	46.9	3	9	68	0.00	30.005 
16:10	64.8	64.8	64.8	52	46.8	4	10	90	0.00	30.005 
16:15	64.5	64.5	64.5	52	46.5	3	10	68	0.00	30.006 
16:20	64.2	64.2	64.2	53	46.7	3	7	68	0.00	30.006 
16:25	63.9	63.9	63.9	53	46.4	4	10	90	0.00	30.006 
16:30	63.7	63.7	63.7	53	46.2	3	7	45	0.00	29.999 
16:35	63.5	63.5	63.5	56	47.5	5	12	90	0.00	29.999 
16:40	63.5	63.5	63.5	52	45.6	5	12	90	0.00	29.999 
16:45	63.5	63.5	63.5	52	45.6	4	18	90	0.00	29.984 
16:50	63.5	63.5	63.5	53	46.1	4	11	68	0.00	29.984 
16:55	63.4	63.4	63.4	52	45.5	5	12	90	0.00	29.984 
17:00	63.4	63.4	63.4	52	45.5	3	11	90	0.00	29.981 
17:05	63.2	63.2	63.2	53	45.8	4	12	90	0.00	29.981 
17:10	63.2	63.2	63.2	52	45.3	4	9	90	0.00	29.981 
17:15	63.1	63.1	63.1	53	45.7	3	6	90	0.00	29.982 
17:20	62.9	62.9	62.9	53	45.5	4	11	90	0.00	29.982 
17:25	62.7	62.7	62.7	53	45.3	3	9	90	0.00	29.982 
17:30	62.6	62.6	62.6	53	45.2	2	6	90	0.00	29.985 
17:35	62.4	62.4	62.4	52	44.5	4	11	90	0.00	29.985 
17:40	62.3	62.3	62.3	53	44.9	3	6	90	0.00	29.985 
17:45	62.0	62.0	62.0	53	44.7	3	9	112	0.00	29.989 
17:50	61.8	61.8	61.8	53	44.5	2	5	90	0.00	29.989 
17:55	61.6	61.6	61.6	53	44.3	2	6	90	0.00	29.989 
18:00	61.5	61.5	61.5	53	44.2	3	5	68	0.00	29.983 
18:05	61.5	61.5	61.5	52	43.7	2	6	90	0.00	29.983 
18:10	61.3	61.3	61.3	52	43.5	2	7	112	0.00	29.983 
18:15	61.2	61.2	61.2	51	42.9	3	6	112	0.00	29.985 
18:20	61.2	61.2	61.2	50	42.4	3	5	90	0.00	29.985 
18:25	61.2	61.2	61.2	50	42.4	2	5	112	0.00	29.985 
18:30	61.2	61.2	61.2	48	41.3	3	10	112	0.00	29.979 
18:35	61.3	61.3	61.3	48	41.4	2	11	112	0.00	29.979 
18:40	61.3	61.3	61.3	45	39.8	4	9	90	0.00	29.979 
18:45	61.5	61.5	61.5	45	40.0	2	5	90	0.00	29.979 
18:50	61.5	61.5	61.5	44	39.4	3	6	112	0.00	29.979 
18:55	61.6	61.6	61.6	43	38.9	2	7	90	0.00	29.979 
19:00	61.6	61.6	61.6	42	38.3	3	7	90	0.00	29.977 
19:05	61.8	61.8	61.8	41	37.8	4	12	90	0.00	29.977 
19:10	61.8	61.8	61.8	40	37.2	4	11	90	0.00	29.977 
19:15	62.0	62.0	62.0	39	36.8	5	12	90	0.00	29.957 
19:20	62.1	62.1	62.1	39	36.8	4	13	90	0.00	29.957 
19:25	62.0	62.0	62.0	39	36.8	3	7	90	0.00	29.957 
19:30	61.8	61.8	61.8	39	36.6	4	13	112	0.00	29.951 
19:35	62.0	62.0	62.0	39	36.8	4	9	112	0.00	29.951 
19:40	62.0	62.0	62.0	38	36.1	4	11	90	0.00	29.951 
19:45	62.0	62.0	62.0	39	36.8	4	11	90	0.00	29.954 
19:50	61.8	61.8	61.8	39	36.6	3	7	90	0.00	29.954 
19:55	61.8	61.8	61.8	39	36.6	3	11	90	0.00	29.954 
20:00	61.6	61.6	61.6	40	37.0	3	8	68	0.00	29.962 
20:05	61.6	61.6	61.6	40	37.0	3	9	90	0.00	29.962 
20:10	61.6	61.6	61.6	40	37.0	3	10	90	0.00	29.962 
20:15	61.6	61.6	61.6	40	37.0	2	5	112	0.00	29.969 
20:20	61.6	61.6	61.6	40	37.0	3	9	90	0.00	29.969 
20:25	61.6	61.6	61.6	40	37.0	3	9	90	0.00	29.969 
20:30	61.6	61.6	61.6	40	37.0	4	12	68	0.00	29.964 
20:35	61.6	61.6	61.6	39	36.4	3	7	90	0.00	29.964 
20:40	61.5	61.5	61.5	40	37.0	3	9	90	0.00	29.964 
20:45	61.3	61.3	61.3	40	36.8	3	6	68	0.00	29.964 
20:50	61.3	61.3	61.3	39	36.1	3	7	90	0.00	29.964 
20:55	61.3	61.3	61.3	40	36.8	3	7	90	0.00	29.964 
21:00	61.0	61.0	61.0	40	36.5	3	6	68	0.00	29.961 
21:05	60.9	60.9	60.9	40	36.4	3	7	90	0.00	29.961 
21:10	60.7	60.7	60.7	40	36.2	3	7	90	0.00	29.961 
21:15	60.7	60.7	60.7	41	36.9	2	6	90	0.00	29.966 
21:20	60.5	60.5	60.5	40	36.1	2	5	90	0.00	29.966 
21:25	60.4	60.4	60.4	41	36.6	2	6	112	0.00	29.966 
21:30	60.4	60.4	60.4	40	36.0	3	7	90	0.00	29.967 
21:35	60.4	60.4	60.4	41	36.6	2	6	90	0.00	29.967 
21:40	60.4	60.4	60.4	41	36.6	2	8	68	0.00	29.967 
21:45	60.2	60.2	60.2	42	37.0	2	7	90	0.00	29.962 
21:50	60.1	60.1	60.1	42	36.9	3	7	90	0.00	29.962 
21:55	60.1	60.1	60.1	42	36.9	2	5	90	0.00	29.962 
22:00	60.1	60.1	60.1	43	37.5	2	5	68	0.00	29.959 
22:05	60.1	60.1	60.1	43	37.5	3	7	90	0.00	29.959 
22:10	60.2	60.2	60.2	43	37.6	2	6	68	0.00	29.959 
22:15	60.2	60.2	60.2	44	38.2	1	4	45	0.00	29.955 
22:20	60.4	60.4	60.4	44	38.4	2	4	112	0.00	29.955 
22:25	60.4	60.4	60.4	44	38.4	2	8	112	0.00	29.955 
22:30	60.9	60.9	60.9	44	38.8	4	11	90	0.00	29.948 
22:35	61.0	61.0	61.0	44	38.9	3	6	90	0.00	29.948 
22:40	61.2	61.2	61.2	45	39.7	3	7	90	0.00	29.948 
22:45	61.3	61.3	61.3	45	39.8	3	7	112	0.00	29.941 
22:50	61.3	61.3	61.3	46	40.3	2	9	68	0.00	29.941 
22:55	61.5	61.5	61.5	46	40.5	3	9	90	0.00	29.941 
23:00	61.5	61.5	61.5	46	40.5	2	7	68	0.00	29.937 
23:05	61.5	61.5	61.5	46	40.5	2	10	68	0.00	29.937 
23:10	61.5	61.5	61.5	47	41.1	2	6	68	0.00	29.937 
23:15	61.5	61.5	61.5	47	41.1	2	5	90	0.00	29.928 
23:20	61.5	61.5	61.5	48	41.6	2	7	45	0.00	29.928 
23:25	61.5	61.5	61.5	47	41.1	3	12	90	0.00	29.928 
23:30	61.5	61.5	61.5	48	41.6	2	8	112	0.00	29.933 
23:35	61.5	61.5	61.5	48	41.6	3	9	90	0.00	29.933 
23:40	61.5	61.5	61.5	48	41.6	3	6	68	0.00	29.933 
23:45	61.3	61.3	61.3	49	42.0	2	7	248	0.00	29.938 
23:50	61.2	61.2	61.2	49	41.9	2	7	68	0.00	29.938 
23:55	61.2	61.2	61.2	50	42.4	2	6	90	0.00	29.938 

CoCoRaHS
IN-AL-39
A2 Web Hosting
Creative Commons License
GoDaddy
search engine by freefind advanced

loaded 2018-11-19 11:38:02 • last modified 2010-11-18 10:43:29
Privacy PolicyDisclaimer
• wx.awcolley.com is powered by PmWiki v.2002016 •
• all content (unless otherwise noted) © 2018 A W Colley